createdAt,value
2018-05-19T00:00:32.719Z,11.65
2018-05-19T00:01:38.231Z,11.64
2018-05-19T00:02:43.756Z,11.64
2018-05-19T00:03:49.267Z,11.50
2018-05-19T00:04:54.770Z,11.52
2018-05-19T00:06:00.287Z,11.53
2018-05-19T00:07:05.794Z,11.49
2018-05-19T00:08:11.305Z,11.49
2018-05-19T00:09:16.817Z,11.36
2018-05-19T00:10:22.345Z,11.35
2018-05-19T00:11:27.840Z,11.39
2018-05-19T00:12:33.370Z,11.35
2018-05-19T00:13:38.864Z,11.38
2018-05-19T00:14:44.394Z,11.41
2018-05-19T00:15:49.891Z,11.41
2018-05-19T00:16:55.403Z,11.36
2018-05-19T00:18:00.915Z,11.34
2018-05-19T00:19:06.443Z,11.29
2018-05-19T00:20:11.937Z,11.24
2018-05-19T00:21:17.458Z,11.19
2018-05-19T00:22:22.958Z,11.31
2018-05-19T00:23:28.478Z,11.16
2018-05-19T00:24:33.982Z,11.29
2018-05-19T00:25:39.499Z,11.19
2018-05-19T00:26:45.039Z,11.19
2018-05-19T00:27:50.523Z,11.16
2018-05-19T00:28:56.037Z,11.19
2018-05-19T00:30:01.550Z,11.13
2018-05-19T00:31:07.055Z,11.19
2018-05-19T00:32:12.563Z,11.06
2018-05-19T00:33:18.083Z,11.11
2018-05-19T00:34:23.590Z,11.10
2018-05-19T00:35:29.103Z,11.03
2018-05-19T00:36:34.615Z,11.02
2018-05-19T00:37:40.123Z,10.89
2018-05-19T00:38:45.637Z,10.98
2018-05-19T00:39:51.144Z,11.01
2018-05-19T00:40:56.657Z,10.89
2018-05-19T00:42:02.175Z,10.98
2018-05-19T00:43:07.676Z,10.99
2018-05-19T00:44:13.187Z,10.91
2018-05-19T00:45:18.714Z,10.91
2018-05-19T00:46:24.224Z,10.92
2018-05-19T00:47:29.730Z,10.80
2018-05-19T00:48:35.249Z,10.81
2018-05-19T00:49:40.751Z,10.80
2018-05-19T00:50:46.258Z,10.80
2018-05-19T00:51:51.790Z,10.80
2018-05-19T00:52:57.291Z,10.86
2018-05-19T00:54:02.795Z,10.80
2018-05-19T00:55:08.303Z,10.77
2018-05-19T00:56:13.836Z,10.77
2018-05-19T00:57:19.345Z,10.73
2018-05-19T00:58:24.844Z,10.77
2018-05-19T00:59:30.359Z,10.77
2018-05-19T01:00:35.867Z,10.76
2018-05-19T01:01:41.376Z,10.71
2018-05-19T01:02:46.885Z,10.80
2018-05-19T01:03:52.395Z,10.66
2018-05-19T01:04:57.917Z,10.73
2018-05-19T01:06:03.432Z,10.73
2018-05-19T01:07:08.930Z,10.70
2018-05-19T01:08:14.447Z,10.77
2018-05-19T01:09:19.955Z,10.73
2018-05-19T01:10:25.472Z,10.68
2018-05-19T01:11:30.979Z,10.66
2018-05-19T01:12:36.491Z,10.70
2018-05-19T01:13:42.004Z,10.66
2018-05-19T01:14:47.533Z,10.60
2018-05-19T01:15:53.020Z,10.66
2018-05-19T01:16:58.537Z,10.65
2018-05-19T01:18:04.050Z,10.63
2018-05-19T01:19:09.557Z,10.56
2018-05-19T01:20:15.070Z,10.58
2018-05-19T01:21:20.580Z,10.59
2018-05-19T01:22:26.091Z,10.53
2018-05-19T01:23:31.602Z,10.58
2018-05-19T01:24:37.116Z,10.55
2018-05-19T01:25:42.631Z,10.47
2018-05-19T01:26:48.144Z,10.47
2018-05-19T01:27:53.645Z,10.43
2018-05-19T01:28:59.155Z,10.43
2018-05-19T01:30:04.666Z,10.51
2018-05-19T01:31:10.177Z,10.34
2018-05-19T01:32:15.769Z,10.36
2018-05-19T01:33:21.204Z,10.37
2018-05-19T01:34:26.806Z,10.33
2018-05-19T01:35:32.225Z,10.32
2018-05-19T01:36:37.742Z,10.28
2018-05-19T01:37:43.294Z,10.22
2018-05-19T01:38:48.757Z,10.19
2018-05-19T01:39:54.267Z,10.24
2018-05-19T01:40:59.787Z,10.14
2018-05-19T01:42:05.294Z,10.15
2018-05-19T01:43:10.803Z,10.17
2018-05-19T01:44:16.320Z,10.09
2018-05-19T01:45:21.828Z,10.10
2018-05-19T01:46:27.338Z,10.12
2018-05-19T01:47:32.854Z,9.97
2018-05-19T01:48:38.365Z,10.01
2018-05-19T01:49:43.870Z,9.97
2018-05-19T01:50:49.389Z,9.96
2018-05-19T01:51:54.896Z,9.93
2018-05-19T01:53:00.399Z,9.91
2018-05-19T01:54:05.912Z,9.91
2018-05-19T01:55:11.433Z,9.93
2018-05-19T01:56:16.948Z,9.81
2018-05-19T01:57:22.445Z,9.83
2018-05-19T01:58:27.956Z,9.83
2018-05-19T01:59:33.469Z,9.79
2018-05-19T02:00:38.987Z,9.82
2018-05-19T02:01:44.487Z,9.76
2018-05-19T02:02:50.004Z,9.85
2018-05-19T02:03:55.511Z,9.83
2018-05-19T02:05:01.026Z,9.78
2018-05-19T02:06:06.536Z,9.88
2018-05-19T02:07:12.040Z,9.79
2018-05-19T02:08:17.605Z,9.85
2018-05-19T02:09:23.081Z,9.82
2018-05-19T02:10:28.582Z,9.82
2018-05-19T02:11:34.099Z,9.86
2018-05-19T02:12:39.595Z,9.79
2018-05-19T02:13:45.105Z,9.82
2018-05-19T02:14:50.618Z,9.79
2018-05-19T02:15:56.132Z,9.79
2018-05-19T02:17:01.645Z,9.89
2018-05-19T02:18:07.156Z,9.78
2018-05-19T02:19:12.668Z,9.81
2018-05-19T02:20:18.188Z,9.75
2018-05-19T02:21:23.686Z,9.82
2018-05-19T02:22:29.194Z,9.75
2018-05-19T02:23:34.703Z,9.79
2018-05-19T02:24:40.217Z,9.75
2018-05-19T02:25:45.726Z,9.76
2018-05-19T02:26:51.240Z,9.76
2018-05-19T02:27:56.746Z,9.71
2018-05-19T02:29:02.255Z,9.79
2018-05-19T02:30:07.774Z,9.71
2018-05-19T02:31:13.288Z,9.71
2018-05-19T02:32:18.791Z,9.71
2018-05-19T02:33:24.400Z,9.66
2018-05-19T02:34:29.812Z,9.64
2018-05-19T02:35:35.325Z,9.53
2018-05-19T02:36:40.844Z,9.57
2018-05-19T02:37:46.353Z,9.57
2018-05-19T02:38:51.859Z,9.48
2018-05-19T02:39:57.366Z,9.50
2018-05-19T02:41:02.876Z,9.52
2018-05-19T02:42:08.395Z,9.48
2018-05-19T02:43:13.897Z,9.35
2018-05-19T02:44:19.403Z,9.39
2018-05-19T02:45:24.921Z,9.39
2018-05-19T02:46:30.439Z,9.39
2018-05-19T02:47:35.943Z,9.35
2018-05-19T02:48:41.458Z,9.32
2018-05-19T02:49:46.965Z,9.31
2018-05-19T02:50:52.475Z,9.30
2018-05-19T02:51:57.985Z,9.28
2018-05-19T02:53:03.510Z,9.31
2018-05-19T02:54:09.001Z,9.35
2018-05-19T02:55:14.520Z,9.32
2018-05-19T02:56:20.026Z,9.30
2018-05-19T02:57:25.536Z,9.27
2018-05-19T02:58:31.060Z,9.16
2018-05-19T02:59:36.555Z,9.28
2018-05-19T03:00:42.067Z,9.18
2018-05-19T03:01:47.601Z,9.13
2018-05-19T03:02:53.092Z,9.21
2018-05-19T03:03:58.599Z,9.25
2018-05-19T03:05:04.109Z,9.23
2018-05-19T03:06:09.627Z,9.20
2018-05-19T03:07:15.126Z,9.25
2018-05-19T03:08:20.641Z,9.21
2018-05-19T03:09:26.153Z,9.25
2018-05-19T03:10:31.673Z,9.23
2018-05-19T03:11:37.172Z,9.21
2018-05-19T03:12:42.678Z,9.12
2018-05-19T03:13:48.189Z,9.16
2018-05-19T03:14:53.701Z,9.13
2018-05-19T03:15:59.218Z,9.09
2018-05-19T03:17:04.766Z,9.05
2018-05-19T03:18:10.286Z,9.06
2018-05-19T03:19:15.802Z,9.10
2018-05-19T03:20:21.251Z,8.99
2018-05-19T03:21:26.767Z,8.99
2018-05-19T03:22:32.273Z,8.97
2018-05-19T03:23:37.785Z,8.97
2018-05-19T03:24:43.295Z,9.02
2018-05-19T03:25:48.807Z,8.96
2018-05-19T03:26:54.320Z,8.99
2018-05-19T03:27:59.825Z,8.97
2018-05-19T03:29:05.338Z,8.93
2018-05-19T03:30:10.846Z,8.96
2018-05-19T03:31:16.363Z,8.93
2018-05-19T03:32:21.868Z,8.94
2018-05-19T03:33:27.379Z,9.01
2018-05-19T03:34:32.887Z,8.97
2018-05-19T03:35:38.479Z,8.99
2018-05-19T03:36:43.911Z,9.05
2018-05-19T03:37:49.418Z,8.97
2018-05-19T03:38:54.928Z,8.94
2018-05-19T03:40:00.441Z,9.01
2018-05-19T03:41:05.950Z,8.99
2018-05-19T03:42:11.465Z,8.94
2018-05-19T03:43:16.974Z,9.01
2018-05-19T03:44:22.480Z,8.91
2018-05-19T03:45:27.992Z,8.91
2018-05-19T03:46:33.504Z,8.96
2018-05-19T03:47:39.015Z,8.93
2018-05-19T03:48:44.529Z,9.04
2018-05-19T03:49:50.041Z,9.01
2018-05-19T03:50:55.553Z,8.97
2018-05-19T03:52:01.048Z,9.06
2018-05-19T03:53:06.560Z,8.97
2018-05-19T03:54:12.073Z,9.04
2018-05-19T03:55:17.586Z,8.99
2018-05-19T03:56:23.105Z,8.93
2018-05-19T03:57:28.619Z,9.01
2018-05-19T03:58:34.114Z,9.01
2018-05-19T03:59:39.622Z,8.90
2018-05-19T04:00:45.129Z,8.96
2018-05-19T04:01:50.643Z,8.91
2018-05-19T04:02:56.155Z,8.96
2018-05-19T04:04:01.671Z,8.90
2018-05-19T04:05:07.172Z,8.91
2018-05-19T04:06:12.687Z,8.94
2018-05-19T04:07:18.199Z,8.93
2018-05-19T04:08:23.706Z,8.96
2018-05-19T04:09:29.215Z,8.86
2018-05-19T04:10:34.727Z,8.90
2018-05-19T04:11:40.252Z,8.90
2018-05-19T04:12:45.744Z,8.91
2018-05-19T04:13:51.258Z,8.96
2018-05-19T04:14:56.766Z,9.01
2018-05-19T04:16:02.276Z,8.99
2018-05-19T04:17:07.801Z,8.97
2018-05-19T04:18:13.303Z,8.99
2018-05-19T04:19:18.812Z,9.04
2018-05-19T04:20:24.316Z,9.06
2018-05-19T04:21:29.844Z,9.05
2018-05-19T04:22:35.344Z,9.16
2018-05-19T04:23:40.862Z,9.12
2018-05-19T04:24:46.356Z,9.15
2018-05-19T04:25:51.866Z,9.13
2018-05-19T04:26:57.375Z,9.10
2018-05-19T04:28:02.886Z,9.21
2018-05-19T04:29:08.396Z,9.20
2018-05-19T04:30:13.905Z,9.12
2018-05-19T04:31:19.418Z,9.24
2018-05-19T04:32:24.925Z,9.23
2018-05-19T04:33:30.437Z,9.27
2018-05-19T04:34:35.945Z,9.25
2018-05-19T04:35:41.455Z,9.18
2018-05-19T04:36:46.974Z,9.25
2018-05-19T04:37:52.485Z,9.31
2018-05-19T04:38:57.995Z,9.39
2018-05-19T04:40:03.502Z,9.34
2018-05-19T04:41:09.016Z,9.40
2018-05-19T04:42:14.526Z,9.42
2018-05-19T04:43:20.036Z,9.53
2018-05-19T04:44:25.548Z,9.50
2018-05-19T04:45:31.055Z,9.52
2018-05-19T04:46:36.567Z,9.56
2018-05-19T04:47:42.182Z,9.53
2018-05-19T04:48:47.586Z,9.57
2018-05-19T04:49:53.143Z,9.50
2018-05-19T04:50:58.606Z,9.57
2018-05-19T04:52:04.118Z,9.63
2018-05-19T04:53:09.626Z,9.60
2018-05-19T04:54:15.135Z,9.66
2018-05-19T04:55:20.648Z,9.70
2018-05-19T04:56:26.163Z,9.75
2018-05-19T04:57:31.667Z,9.67
2018-05-19T04:58:37.175Z,9.68
2018-05-19T04:59:42.685Z,9.73
2018-05-19T05:00:48.206Z,9.76
2018-05-19T05:01:53.718Z,9.81
2018-05-19T05:02:59.219Z,9.81
2018-05-19T05:04:04.776Z,9.82
2018-05-19T05:05:10.244Z,9.81
2018-05-19T05:06:15.762Z,9.88
2018-05-19T05:07:21.263Z,9.94
2018-05-19T05:08:26.773Z,10.01
2018-05-19T05:09:32.285Z,9.96
2018-05-19T05:10:37.812Z,9.99
2018-05-19T05:11:43.309Z,10.12
2018-05-19T05:12:48.813Z,10.09
2018-05-19T05:13:54.341Z,10.19
2018-05-19T05:14:59.837Z,10.15
2018-05-19T05:16:05.962Z,10.17
2018-05-19T05:17:10.863Z,10.22
2018-05-19T05:18:16.378Z,10.28
2018-05-19T05:19:21.884Z,10.32
2018-05-19T05:20:27.400Z,10.39
2018-05-19T05:21:32.917Z,10.47
2018-05-19T05:22:38.418Z,10.51
2018-05-19T05:23:43.936Z,10.46
2018-05-19T05:24:49.466Z,10.55
2018-05-19T05:25:54.946Z,10.58
2018-05-19T05:27:00.487Z,10.51
2018-05-19T05:28:05.976Z,10.47
2018-05-19T05:29:11.475Z,10.56
2018-05-19T05:30:17.037Z,10.70
2018-05-19T05:31:22.500Z,10.66
2018-05-19T05:32:28.044Z,10.66
2018-05-19T05:33:33.542Z,10.66
2018-05-19T05:34:39.037Z,10.76
2018-05-19T05:35:44.553Z,10.73
2018-05-19T05:36:50.060Z,10.84
2018-05-19T05:37:55.564Z,10.83
2018-05-19T05:39:01.077Z,10.83
2018-05-19T05:40:06.585Z,10.89
2018-05-19T05:41:12.101Z,11.01
2018-05-19T05:42:17.622Z,10.96
2018-05-19T05:43:23.130Z,10.91
2018-05-19T05:44:28.632Z,11.06
2018-05-19T05:45:34.148Z,11.11
2018-05-19T05:46:39.662Z,11.13
2018-05-19T05:47:45.177Z,11.20
2018-05-19T05:48:50.691Z,11.31
2018-05-19T05:49:56.200Z,11.29
2018-05-19T05:51:01.706Z,11.38
2018-05-19T05:52:07.222Z,11.32
2018-05-19T05:53:12.734Z,11.54
2018-05-19T05:54:18.238Z,11.50
2018-05-19T05:55:23.754Z,11.52
2018-05-19T05:56:29.265Z,11.59
2018-05-19T05:57:34.771Z,11.61
2018-05-19T05:58:40.286Z,11.75
2018-05-19T05:59:45.811Z,11.71
2018-05-19T06:00:51.308Z,11.86
2018-05-19T06:01:56.816Z,11.99
2018-05-19T06:03:02.341Z,11.94
2018-05-19T06:04:07.847Z,11.89
2018-05-19T06:05:13.360Z,12.02
2018-05-19T06:06:18.880Z,12.02
2018-05-19T06:07:24.381Z,11.99
2018-05-19T06:08:29.937Z,12.06
2018-05-19T06:09:35.397Z,12.13
2018-05-19T06:10:40.917Z,12.16
2018-05-19T06:11:46.427Z,12.23
2018-05-19T06:12:51.936Z,12.27
2018-05-19T06:13:57.448Z,12.30
2018-05-19T06:15:02.972Z,12.27
2018-05-19T06:16:08.482Z,12.26
2018-05-19T06:17:13.986Z,12.39
2018-05-19T06:18:19.504Z,12.41
2018-05-19T06:19:25.005Z,12.49
2018-05-19T06:20:30.518Z,12.38
2018-05-19T06:21:36.048Z,12.54
2018-05-19T06:22:41.545Z,12.59
2018-05-19T06:23:47.053Z,12.56
2018-05-19T06:24:52.664Z,12.51
2018-05-19T06:25:58.087Z,12.64
2018-05-19T06:27:03.595Z,12.57
2018-05-19T06:28:09.115Z,12.64
2018-05-19T06:29:14.618Z,12.59
2018-05-19T06:30:20.125Z,12.66
2018-05-19T06:31:25.648Z,12.71
2018-05-19T06:32:31.151Z,12.70
2018-05-19T06:33:36.666Z,12.77
2018-05-19T06:34:42.213Z,12.75
2018-05-19T06:35:47.685Z,12.78
2018-05-19T06:36:53.200Z,12.78
2018-05-19T06:37:58.712Z,12.82
2018-05-19T06:39:04.224Z,12.84
2018-05-19T06:40:09.737Z,12.89
2018-05-19T06:41:15.301Z,12.85
2018-05-19T06:42:20.766Z,12.93
2018-05-19T06:43:26.291Z,12.89
2018-05-19T06:44:31.800Z,12.97
2018-05-19T06:45:37.303Z,12.99
2018-05-19T06:46:42.827Z,12.92
2018-05-19T06:47:48.331Z,13.14
2018-05-19T06:48:53.840Z,13.15
2018-05-19T06:49:59.356Z,13.11
2018-05-19T06:51:04.867Z,13.24
2018-05-19T06:52:10.386Z,13.27
2018-05-19T06:53:15.892Z,13.24
2018-05-19T06:54:21.402Z,13.43
2018-05-19T06:55:26.913Z,13.41
2018-05-19T06:56:32.432Z,13.54
2018-05-19T06:57:37.943Z,13.51
2018-05-19T06:58:43.458Z,13.58
2018-05-19T06:59:48.961Z,13.58
2018-05-19T07:00:54.477Z,13.63
2018-05-19T07:01:59.987Z,13.62
2018-05-19T07:03:05.505Z,13.62
2018-05-19T07:04:11.022Z,13.63
2018-05-19T07:05:16.526Z,13.71
2018-05-19T07:06:22.040Z,13.79
2018-05-19T07:07:27.557Z,13.67
2018-05-19T07:08:33.124Z,13.73
2018-05-19T07:09:38.632Z,13.80
2018-05-19T07:10:44.094Z,13.67
2018-05-19T07:11:49.640Z,13.81
2018-05-19T07:12:55.120Z,13.80
2018-05-19T07:14:00.627Z,13.83
2018-05-19T07:15:06.200Z,13.80
2018-05-19T07:16:11.655Z,13.88
2018-05-19T07:17:17.172Z,13.83
2018-05-19T07:18:22.687Z,13.80
2018-05-19T07:19:28.190Z,13.91
2018-05-19T07:20:33.718Z,13.96
2018-05-19T07:21:39.236Z,13.95
2018-05-19T07:22:44.733Z,13.98
2018-05-19T07:23:50.248Z,14.07
2018-05-19T07:24:55.763Z,14.04
2018-05-19T07:26:01.273Z,14.04
2018-05-19T07:27:06.787Z,14.14
2018-05-19T07:28:12.301Z,14.12
2018-05-19T07:29:17.819Z,14.14
2018-05-19T07:30:23.325Z,14.21
2018-05-19T07:31:28.839Z,14.16
2018-05-19T07:32:34.353Z,14.17
2018-05-19T07:33:39.870Z,14.29
2018-05-19T07:34:45.377Z,14.43
2018-05-19T07:35:50.902Z,14.39
2018-05-19T07:36:56.418Z,14.38
2018-05-19T07:38:01.920Z,14.37
2018-05-19T07:39:07.428Z,14.47
2018-05-19T07:40:12.946Z,14.44
2018-05-19T07:41:18.456Z,14.47
2018-05-19T07:42:23.979Z,14.44
2018-05-19T07:43:29.480Z,14.38
2018-05-19T07:44:34.998Z,14.39
2018-05-19T07:45:40.516Z,14.39
2018-05-19T07:46:46.030Z,14.37
2018-05-19T07:47:51.537Z,14.44
2018-05-19T07:48:57.062Z,14.47
2018-05-19T07:50:02.564Z,14.57
2018-05-19T07:51:08.085Z,14.49
2018-05-19T07:52:13.596Z,14.52
2018-05-19T07:53:19.115Z,14.53
2018-05-19T07:54:24.617Z,14.52
2018-05-19T07:55:30.130Z,14.47
2018-05-19T07:56:35.648Z,14.53
2018-05-19T07:57:41.154Z,14.57
2018-05-19T07:58:46.671Z,14.57
2018-05-19T07:59:52.203Z,14.62
2018-05-19T08:00:57.698Z,14.68
2018-05-19T08:02:03.221Z,14.68
2018-05-19T08:03:08.727Z,14.62
2018-05-19T08:04:14.289Z,14.61
2018-05-19T08:05:19.760Z,14.72
2018-05-19T08:06:25.269Z,14.75
2018-05-19T08:07:30.813Z,14.81
2018-05-19T08:08:36.304Z,14.74
2018-05-19T08:09:41.807Z,14.80
2018-05-19T08:10:47.328Z,14.86
2018-05-19T08:11:52.839Z,14.84
2018-05-19T08:12:58.349Z,14.86
2018-05-19T08:14:03.875Z,14.86
2018-05-19T08:15:09.379Z,14.87
2018-05-19T08:16:14.896Z,14.93
2018-05-19T08:17:20.462Z,14.94
2018-05-19T08:18:25.944Z,14.95
2018-05-19T08:19:31.450Z,15.01
2018-05-19T08:20:36.940Z,15.01
2018-05-19T08:21:42.460Z,15.02
2018-05-19T08:22:47.971Z,15.03
2018-05-19T08:23:53.482Z,15.06
2018-05-19T08:24:59.015Z,15.21
2018-05-19T08:26:04.511Z,15.12
2018-05-19T08:27:10.027Z,15.23
2018-05-19T08:28:15.543Z,15.20
2018-05-19T08:29:21.053Z,15.27
2018-05-19T08:30:26.571Z,15.24
2018-05-19T08:31:32.078Z,15.23
2018-05-19T08:32:37.598Z,15.21
2018-05-19T08:33:43.110Z,15.24
2018-05-19T08:34:48.629Z,15.19
2018-05-19T08:35:54.134Z,15.27
2018-05-19T08:36:59.651Z,15.26
2018-05-19T08:38:05.161Z,15.24
2018-05-19T08:39:10.672Z,15.26
2018-05-19T08:40:16.188Z,15.38
2018-05-19T08:41:21.701Z,15.48
2018-05-19T08:42:27.256Z,15.36
2018-05-19T08:43:32.731Z,15.36
2018-05-19T08:44:38.390Z,15.35
2018-05-19T08:45:43.757Z,15.36
2018-05-19T08:46:49.274Z,15.36
2018-05-19T08:47:54.795Z,15.35
2018-05-19T08:49:00.303Z,15.35
2018-05-19T08:50:05.820Z,15.36
2018-05-19T08:51:11.329Z,15.38
2018-05-19T08:52:16.852Z,15.38
2018-05-19T08:53:22.356Z,15.41
2018-05-19T08:54:27.877Z,15.38
2018-05-19T08:55:33.380Z,15.33
2018-05-19T08:56:38.900Z,15.31
2018-05-19T08:57:44.414Z,15.35
2018-05-19T08:58:49.923Z,15.42
2018-05-19T08:59:55.440Z,15.43
2018-05-19T09:01:00.950Z,15.49
2018-05-19T09:02:06.466Z,15.61
2018-05-19T09:03:11.986Z,15.60
2018-05-19T09:04:17.496Z,15.60
2018-05-19T09:05:23.022Z,15.59
2018-05-19T09:06:28.529Z,15.59
2018-05-19T09:07:34.032Z,15.60
2018-05-19T09:08:39.546Z,15.68
2018-05-19T09:09:45.069Z,15.64
2018-05-19T09:10:50.593Z,15.72
2018-05-19T09:11:56.099Z,15.72
2018-05-19T09:13:01.616Z,15.79
2018-05-19T09:14:07.121Z,15.96
2018-05-19T09:15:12.641Z,16.07
2018-05-19T09:16:18.155Z,16.07
2018-05-19T09:17:23.677Z,16.25
2018-05-19T09:18:29.179Z,16.18
2018-05-19T09:19:34.691Z,16.25
2018-05-19T09:20:40.261Z,16.27
2018-05-19T09:21:45.728Z,16.31
2018-05-19T09:22:51.239Z,16.41
2018-05-19T09:23:56.751Z,16.38
2018-05-19T09:25:02.263Z,16.41
2018-05-19T09:26:07.783Z,16.40
2018-05-19T09:27:13.299Z,16.35
2018-05-19T09:28:18.805Z,16.40
2018-05-19T09:29:24.326Z,16.34
2018-05-19T09:30:29.837Z,16.40
2018-05-19T09:31:35.350Z,16.37
2018-05-19T09:32:40.864Z,16.41
2018-05-19T09:33:46.384Z,16.37
2018-05-19T09:34:51.894Z,16.44
2018-05-19T09:35:57.424Z,16.44
2018-05-19T09:37:02.927Z,16.44
2018-05-19T09:38:08.441Z,16.45
2018-05-19T09:39:13.953Z,16.50
2018-05-19T09:40:19.485Z,16.45
2018-05-19T09:41:24.993Z,16.45
2018-05-19T09:42:30.500Z,16.42
2018-05-19T09:43:36.018Z,16.42
2018-05-19T09:44:41.525Z,16.41
2018-05-19T09:45:47.060Z,16.49
2018-05-19T09:46:52.562Z,16.56
2018-05-19T09:47:58.077Z,16.52
2018-05-19T09:49:03.590Z,16.50
2018-05-19T09:50:09.100Z,16.63
2018-05-19T09:51:14.628Z,16.68
2018-05-19T09:52:20.136Z,16.77
2018-05-19T09:53:25.648Z,16.83
2018-05-19T09:54:31.160Z,16.80
2018-05-19T09:55:36.675Z,16.93
2018-05-19T09:56:42.199Z,16.93
2018-05-19T09:57:47.706Z,16.98
2018-05-19T09:58:53.217Z,16.93
2018-05-19T09:59:58.733Z,16.98
2018-05-19T10:01:04.246Z,17.10
2018-05-19T10:02:09.765Z,17.25
2018-05-19T10:03:15.288Z,17.29
2018-05-19T10:04:20.791Z,17.48
2018-05-19T10:05:26.310Z,17.48
2018-05-19T10:06:31.825Z,17.66
2018-05-19T10:07:37.335Z,17.78
2018-05-19T10:08:42.858Z,17.89
2018-05-19T10:09:48.371Z,17.82
2018-05-19T10:10:53.882Z,17.79
2018-05-19T10:11:59.408Z,17.94
2018-05-19T10:13:04.916Z,18.02
2018-05-19T10:14:10.434Z,18.03
2018-05-19T10:15:15.952Z,18.03
2018-05-19T10:16:21.469Z,18.04
2018-05-19T10:17:26.994Z,18.07
2018-05-19T10:18:32.594Z,17.99
2018-05-19T10:19:38.007Z,18.09
2018-05-19T10:20:43.524Z,18.17
2018-05-19T10:21:49.042Z,18.15
2018-05-19T10:22:54.708Z,18.15
2018-05-19T10:24:00.072Z,18.17
2018-05-19T10:25:05.587Z,18.21
2018-05-19T10:26:11.107Z,18.15
2018-05-19T10:27:16.615Z,18.22
2018-05-19T10:28:22.154Z,18.27
2018-05-19T10:29:27.647Z,18.19
2018-05-19T10:30:33.164Z,18.22
2018-05-19T10:31:38.698Z,18.31
2018-05-19T10:32:44.196Z,18.43
2018-05-19T10:33:49.713Z,18.54
2018-05-19T10:34:55.223Z,18.54
2018-05-19T10:36:00.748Z,18.54
2018-05-19T10:37:06.267Z,18.59
2018-05-19T10:38:11.784Z,18.65
2018-05-19T10:39:17.289Z,18.67
2018-05-19T10:40:22.812Z,18.62
2018-05-19T10:41:28.322Z,18.55
2018-05-19T10:42:33.847Z,18.55
2018-05-19T10:43:39.358Z,18.55
2018-05-19T10:44:44.871Z,18.49
2018-05-19T10:45:50.397Z,18.52
2018-05-19T10:46:55.906Z,18.47
2018-05-19T10:48:01.434Z,18.47
2018-05-19T10:49:06.944Z,18.44
2018-05-19T10:50:12.458Z,18.46
2018-05-19T10:51:17.966Z,18.40
2018-05-19T10:52:23.485Z,18.40
2018-05-19T10:53:28.996Z,18.39
2018-05-19T10:54:34.517Z,18.40
2018-05-19T10:55:40.026Z,18.46
2018-05-19T10:56:45.555Z,18.47
2018-05-19T10:57:51.066Z,18.54
2018-05-19T10:58:56.575Z,18.57
2018-05-19T11:00:02.092Z,18.62
2018-05-19T11:01:07.609Z,18.73
2018-05-19T11:02:13.128Z,18.80
2018-05-19T11:03:18.645Z,18.94
2018-05-19T11:04:24.157Z,19.20
2018-05-19T11:05:29.671Z,19.23
2018-05-19T11:06:35.193Z,19.25
2018-05-19T11:07:40.713Z,19.25
2018-05-19T11:08:46.234Z,19.39
2018-05-19T11:09:51.797Z,19.54
2018-05-19T11:10:57.253Z,19.70
2018-05-19T11:12:02.778Z,19.79
2018-05-19T11:13:08.288Z,19.78
2018-05-19T11:14:13.808Z,19.90
2018-05-19T11:15:19.320Z,19.95
2018-05-19T11:16:24.843Z,20.10
2018-05-19T11:17:30.355Z,20.00
2018-05-19T11:18:35.973Z,19.94
2018-05-19T11:19:41.397Z,20.03
2018-05-19T11:20:46.994Z,20.08
2018-05-19T11:21:52.421Z,19.98
2018-05-19T11:22:57.940Z,19.97
2018-05-19T11:24:03.484Z,20.08
2018-05-19T11:25:08.974Z,20.20
2018-05-19T11:26:14.492Z,20.21
2018-05-19T11:27:20.006Z,20.05
2018-05-19T11:28:25.526Z,20.18
2018-05-19T11:29:31.056Z,20.08
2018-05-19T11:30:36.554Z,20.05
2018-05-19T11:31:42.082Z,19.98
2018-05-19T11:32:47.585Z,19.98
2018-05-19T11:33:53.105Z,20.10
2018-05-19T11:34:58.625Z,20.00
2018-05-19T11:36:04.153Z,20.09
2018-05-19T11:37:09.655Z,20.10
2018-05-19T11:38:15.170Z,20.06
2018-05-19T11:39:20.694Z,20.10
2018-05-19T11:40:26.224Z,20.06
2018-05-19T11:41:31.766Z,20.02
2018-05-19T11:42:37.239Z,20.09
2018-05-19T11:43:42.757Z,20.09
2018-05-19T11:44:48.281Z,20.10
2018-05-19T11:45:53.799Z,20.03
2018-05-19T11:46:59.317Z,20.09
2018-05-19T11:48:04.835Z,20.20
2018-05-19T11:49:10.351Z,20.13
2018-05-19T11:50:15.864Z,20.28
2018-05-19T11:51:21.397Z,20.51
2018-05-19T11:52:26.892Z,20.74
2018-05-19T11:53:32.414Z,20.90
2018-05-19T11:54:37.934Z,21.06
2018-05-19T11:55:43.457Z,21.29
2018-05-19T11:56:48.967Z,21.30
2018-05-19T11:57:54.494Z,21.34
2018-05-19T11:59:00.006Z,21.50
2018-05-19T12:00:05.526Z,21.63
2018-05-19T12:01:11.042Z,21.66
2018-05-19T12:02:16.553Z,21.66
2018-05-19T12:03:22.078Z,21.92
2018-05-19T12:04:27.599Z,21.92
2018-05-19T12:05:33.107Z,22.04
2018-05-19T12:06:38.633Z,22.12
2018-05-19T12:07:44.155Z,22.10
2018-05-19T12:08:49.661Z,22.14
2018-05-19T12:09:55.195Z,22.23
2018-05-19T12:11:00.698Z,22.27
2018-05-19T12:12:06.404Z,22.38
2018-05-19T12:13:11.754Z,22.38
2018-05-19T12:14:17.254Z,22.39
2018-05-19T12:15:22.772Z,22.50
2018-05-19T12:16:28.292Z,22.53
2018-05-19T12:17:33.824Z,22.47
2018-05-19T12:18:39.333Z,22.52
2018-05-19T12:19:44.848Z,22.50
2018-05-19T12:20:50.368Z,22.53
2018-05-19T12:21:55.896Z,22.39
2018-05-19T12:23:01.512Z,22.39
2018-05-19T12:24:06.946Z,22.32
2018-05-19T12:25:12.458Z,22.22
2018-05-19T12:26:17.978Z,22.27
2018-05-19T12:27:23.471Z,22.20
2018-05-19T12:28:28.995Z,22.13
2018-05-19T12:29:34.522Z,22.04
2018-05-19T12:30:40.034Z,21.98
2018-05-19T12:31:45.554Z,21.82
2018-05-19T12:32:51.064Z,21.83
2018-05-19T12:33:56.603Z,21.92
2018-05-19T12:35:02.105Z,21.85
2018-05-19T12:36:07.664Z,21.90
2018-05-19T12:37:13.196Z,21.94
2018-05-19T12:38:18.658Z,21.95
2018-05-19T12:39:24.181Z,21.94
2018-05-19T12:40:29.707Z,21.91
2018-05-19T12:41:35.319Z,21.91
2018-05-19T12:42:40.736Z,21.91
2018-05-19T12:43:46.251Z,21.97
2018-05-19T12:44:51.787Z,21.98
2018-05-19T12:45:57.285Z,21.99
2018-05-19T12:47:02.818Z,22.02
2018-05-19T12:48:08.333Z,22.14
2018-05-19T12:49:13.847Z,22.02
2018-05-19T12:50:19.362Z,22.07
2018-05-19T12:51:24.886Z,22.10
2018-05-19T12:52:30.401Z,22.20
2018-05-19T12:53:35.925Z,22.22
2018-05-19T12:54:41.436Z,22.27
2018-05-19T12:55:46.952Z,22.34
2018-05-19T12:56:52.471Z,22.34
2018-05-19T12:57:58.007Z,22.47
2018-05-19T12:59:03.562Z,22.41
2018-05-19T13:00:09.026Z,22.44
2018-05-19T13:01:14.561Z,22.53
2018-05-19T13:02:20.062Z,22.54
2018-05-19T13:03:25.652Z,22.49
2018-05-19T13:04:31.098Z,22.54
2018-05-19T13:05:36.620Z,22.60
2018-05-19T13:06:42.168Z,22.64
2018-05-19T13:07:47.714Z,22.54
2018-05-19T13:08:53.192Z,22.53
2018-05-19T13:09:58.692Z,22.64
2018-05-19T13:11:04.216Z,22.52
2018-05-19T13:12:09.747Z,22.53
2018-05-19T13:13:15.250Z,22.49
2018-05-19T13:14:20.770Z,22.41
2018-05-19T13:15:26.298Z,22.37
2018-05-19T13:16:31.814Z,22.20
2018-05-19T13:17:37.341Z,22.14
2018-05-19T13:18:42.862Z,21.98
2018-05-19T13:19:48.367Z,22.01
2018-05-19T13:20:53.887Z,21.95
2018-05-19T13:21:59.409Z,22.01
2018-05-19T13:23:04.916Z,22.06
2018-05-19T13:24:10.452Z,22.01
2018-05-19T13:25:15.965Z,22.06
2018-05-19T13:26:21.485Z,22.04
2018-05-19T13:27:27.022Z,22.04
2018-05-19T13:28:32.510Z,22.07
2018-05-19T13:29:38.025Z,22.06
2018-05-19T13:30:43.541Z,22.10
2018-05-19T13:31:49.085Z,22.04
2018-05-19T13:32:54.600Z,22.01
2018-05-19T13:34:00.103Z,22.12
2018-05-19T13:35:05.618Z,22.07
2018-05-19T13:36:11.163Z,22.14
2018-05-19T13:37:16.675Z,22.12
2018-05-19T13:38:22.180Z,22.06
2018-05-19T13:39:27.722Z,22.04
2018-05-19T13:40:33.216Z,22.09
2018-05-19T13:41:38.732Z,21.98
2018-05-19T13:42:44.243Z,21.95
2018-05-19T13:43:49.764Z,21.95
2018-05-19T13:44:55.283Z,21.83
2018-05-19T13:46:00.807Z,21.79
2018-05-19T13:47:06.329Z,21.75
2018-05-19T13:48:11.841Z,21.67
2018-05-19T13:49:17.359Z,21.61
2018-05-19T13:50:22.879Z,21.57
2018-05-19T13:51:28.396Z,21.38
2018-05-19T13:52:33.918Z,21.35
2018-05-19T13:53:39.545Z,21.30
2018-05-19T13:54:44.984Z,21.35
2018-05-19T13:55:50.507Z,21.26
2018-05-19T13:56:55.986Z,21.11
2018-05-19T13:58:01.507Z,21.04
2018-05-19T13:59:07.023Z,20.90
2018-05-19T14:00:12.561Z,20.90
2018-05-19T14:01:18.056Z,20.80
2018-05-19T14:02:23.576Z,20.79
2018-05-19T14:03:29.099Z,20.77
2018-05-19T14:04:34.614Z,20.81
2018-05-19T14:05:40.133Z,20.80
2018-05-19T14:06:45.652Z,20.76
2018-05-19T14:07:51.163Z,20.86
2018-05-19T14:08:56.684Z,20.90
2018-05-19T14:10:02.195Z,21.04